sensor_id;sensor_type;location;lat;lon;timestamp;P1;durP1;ratioP1;P2;durP2;ratioP2
3036;SDS011;1528;52.550;13.408;2022-08-03T00:00:15;6.87;;;5.37;;
3036;SDS011;1528;52.550;13.408;2022-08-03T00:03:04;5.73;;;5.23;;
3036;SDS011;1528;52.550;13.408;2022-08-03T00:05:53;7.07;;;6.37;;
3036;SDS011;1528;52.550;13.408;2022-08-03T00:08:44;6.10;;;5.20;;
3036;SDS011;1528;52.550;13.408;2022-08-03T00:11:32;5.47;;;4.97;;
3036;SDS011;1528;52.550;13.408;2022-08-03T00:14:22;5.37;;;4.87;;
3036;SDS011;1528;52.550;13.408;2022-08-03T00:17:11;6.63;;;5.03;;
3036;SDS011;1528;52.550;13.408;2022-08-03T00:20:00;6.10;;;5.50;;
3036;SDS011;1528;52.550;13.408;2022-08-03T00:22:48;5.13;;;4.73;;
3036;SDS011;1528;52.550;13.408;2022-08-03T00:25:39;6.20;;;5.30;;
3036;SDS011;1528;52.550;13.408;2022-08-03T00:28:27;5.97;;;5.37;;
3036;SDS011;1528;52.550;13.408;2022-08-03T00:31:16;5.27;;;4.87;;
3036;SDS011;1528;52.550;13.408;2022-08-03T00:34:04;5.80;;;5.30;;
3036;SDS011;1528;52.550;13.408;2022-08-03T00:36:53;5.80;;;5.00;;
3036;SDS011;1528;52.550;13.408;2022-08-03T00:39:42;6.70;;;4.83;;
3036;SDS011;1528;52.550;13.408;2022-08-03T00:42:33;5.40;;;4.90;;
3036;SDS011;1528;52.550;13.408;2022-08-03T00:45:32;6.60;;;6.00;;
3036;SDS011;1528;52.550;13.408;2022-08-03T00:48:22;5.83;;;5.37;;
3036;SDS011;1528;52.550;13.408;2022-08-03T00:51:11;5.33;;;4.93;;
3036;SDS011;1528;52.550;13.408;2022-08-03T00:54:00;5.90;;;5.37;;
3036;SDS011;1528;52.550;13.408;2022-08-03T00:56:49;8.93;;;6.60;;
3036;SDS011;1528;52.550;13.408;2022-08-03T00:59:40;7.83;;;5.10;;
3036;SDS011;1528;52.550;13.408;2022-08-03T01:02:28;5.93;;;5.40;;
3036;SDS011;1528;52.550;13.408;2022-08-03T01:05:16;5.60;;;5.20;;
3036;SDS011;1528;52.550;13.408;2022-08-03T01:08:07;6.27;;;5.63;;
3036;SDS011;1528;52.550;13.408;2022-08-03T01:11:04;6.33;;;5.70;;
3036;SDS011;1528;52.550;13.408;2022-08-03T01:14:01;6.37;;;5.73;;
3036;SDS011;1528;52.550;13.408;2022-08-03T01:16:58;5.90;;;5.43;;
3036;SDS011;1528;52.550;13.408;2022-08-03T01:19:52;5.80;;;5.40;;
3036;SDS011;1528;52.550;13.408;2022-08-03T01:26:10;6.60;;;5.80;;
3036;SDS011;1528;52.550;13.408;2022-08-03T01:29:16;6.60;;;5.67;;
3036;SDS011;1528;52.550;13.408;2022-08-03T01:32:29;5.53;;;4.93;;
3036;SDS011;1528;52.550;13.408;2022-08-03T01:35:25;5.47;;;4.77;;
3036;SDS011;1528;52.550;13.408;2022-08-03T01:38:24;5.40;;;4.90;;
3036;SDS011;1528;52.550;13.408;2022-08-03T01:41:16;5.30;;;4.90;;
3036;SDS011;1528;52.550;13.408;2022-08-03T01:44:06;6.33;;;5.83;;
3036;SDS011;1528;52.550;13.408;2022-08-03T01:46:59;5.43;;;5.03;;
3036;SDS011;1528;52.550;13.408;2022-08-03T01:49:49;5.33;;;4.90;;
3036;SDS011;1528;52.550;13.408;2022-08-03T01:52:40;5.50;;;5.10;;
3036;SDS011;1528;52.550;13.408;2022-08-03T01:55:30;5.00;;;4.60;;
3036;SDS011;1528;52.550;13.408;2022-08-03T01:58:21;5.43;;;5.03;;
3036;SDS011;1528;52.550;13.408;2022-08-03T02:01:12;5.60;;;5.20;;
3036;SDS011;1528;52.550;13.408;2022-08-03T02:04:04;5.77;;;5.17;;
3036;SDS011;1528;52.550;13.408;2022-08-03T02:06:54;5.40;;;4.70;;
3036;SDS011;1528;52.550;13.408;2022-08-03T02:09:46;5.23;;;4.73;;
3036;SDS011;1528;52.550;13.408;2022-08-03T02:12:37;5.47;;;4.90;;
3036;SDS011;1528;52.550;13.408;2022-08-03T02:15:28;5.80;;;5.40;;
3036;SDS011;1528;52.550;13.408;2022-08-03T02:18:19;5.40;;;5.00;;
3036;SDS011;1528;52.550;13.408;2022-08-03T02:21:09;5.97;;;5.47;;
3036;SDS011;1528;52.550;13.408;2022-08-03T02:23:59;5.73;;;5.30;;
3036;SDS011;1528;52.550;13.408;2022-08-03T02:26:47;5.70;;;5.30;;
3036;SDS011;1528;52.550;13.408;2022-08-03T02:29:37;7.20;;;5.80;;
3036;SDS011;1528;52.550;13.408;2022-08-03T02:32:28;6.43;;;5.83;;
3036;SDS011;1528;52.550;13.408;2022-08-03T02:35:20;6.50;;;5.90;;
3036;SDS011;1528;52.550;13.408;2022-08-03T02:38:14;6.07;;;5.67;;
3036;SDS011;1528;52.550;13.408;2022-08-03T02:41:06;6.47;;;5.80;;
3036;SDS011;1528;52.550;13.408;2022-08-03T02:43:55;6.20;;;5.70;;
3036;SDS011;1528;52.550;13.408;2022-08-03T02:46:47;7.50;;;6.77;;
3036;SDS011;1528;52.550;13.408;2022-08-03T02:49:38;6.43;;;6.00;;
3036;SDS011;1528;52.550;13.408;2022-08-03T02:52:27;6.30;;;5.90;;
3036;SDS011;1528;52.550;13.408;2022-08-03T02:55:20;6.17;;;5.30;;
3036;SDS011;1528;52.550;13.408;2022-08-03T02:58:12;6.27;;;5.67;;
3036;SDS011;1528;52.550;13.408;2022-08-03T03:01:02;7.40;;;6.70;;
3036;SDS011;1528;52.550;13.408;2022-08-03T03:03:51;6.27;;;5.87;;
3036;SDS011;1528;52.550;13.408;2022-08-03T03:06:41;6.63;;;6.03;;
3036;SDS011;1528;52.550;13.408;2022-08-03T03:09:30;7.17;;;6.50;;
3036;SDS011;1528;52.550;13.408;2022-08-03T03:12:22;5.40;;;5.00;;
3036;SDS011;1528;52.550;13.408;2022-08-03T03:15:11;6.00;;;5.53;;
3036;SDS011;1528;52.550;13.408;2022-08-03T03:18:00;6.33;;;5.83;;
3036;SDS011;1528;52.550;13.408;2022-08-03T03:20:48;6.23;;;5.73;;
3036;SDS011;1528;52.550;13.408;2022-08-03T03:23:37;6.37;;;5.87;;
3036;SDS011;1528;52.550;13.408;2022-08-03T03:26:27;6.53;;;5.77;;
3036;SDS011;1528;52.550;13.408;2022-08-03T03:29:17;5.90;;;5.37;;
3036;SDS011;1528;52.550;13.408;2022-08-03T03:32:05;5.77;;;5.27;;
3036;SDS011;1528;52.550;13.408;2022-08-03T03:34:54;5.43;;;5.00;;
3036;SDS011;1528;52.550;13.408;2022-08-03T03:37:43;4.97;;;4.60;;
3036;SDS011;1528;52.550;13.408;2022-08-03T03:40:31;6.17;;;5.70;;
3036;SDS011;1528;52.550;13.408;2022-08-03T03:43:21;5.77;;;5.27;;
3036;SDS011;1528;52.550;13.408;2022-08-03T03:46:13;4.93;;;4.60;;
3036;SDS011;1528;52.550;13.408;2022-08-03T03:49:01;5.93;;;5.33;;
3036;SDS011;1528;52.550;13.408;2022-08-03T03:51:51;5.40;;;5.00;;
3036;SDS011;1528;52.550;13.408;2022-08-03T03:54:39;5.83;;;5.43;;
3036;SDS011;1528;52.550;13.408;2022-08-03T03:57:28;5.70;;;5.30;;
3036;SDS011;1528;52.550;13.408;2022-08-03T04:00:17;5.03;;;4.60;;
3036;SDS011;1528;52.550;13.408;2022-08-03T04:03:08;5.83;;;5.23;;
3036;SDS011;1528;52.550;13.408;2022-08-03T04:05:57;5.83;;;5.43;;
3036;SDS011;1528;52.550;13.408;2022-08-03T04:09:02;5.67;;;5.17;;
3036;SDS011;1528;52.550;13.408;2022-08-03T04:12:06;5.63;;;5.13;;
3036;SDS011;1528;52.550;13.408;2022-08-03T04:14:55;5.27;;;4.83;;
3036;SDS011;1528;52.550;13.408;2022-08-03T04:17:45;5.00;;;4.60;;
3036;SDS011;1528;52.550;13.408;2022-08-03T04:20:36;6.20;;;5.80;;
3036;SDS011;1528;52.550;13.408;2022-08-03T04:23:26;7.23;;;6.10;;
3036;SDS011;1528;52.550;13.408;2022-08-03T04:26:17;5.40;;;4.93;;
3036;SDS011;1528;52.550;13.408;2022-08-03T04:29:08;5.70;;;5.20;;
3036;SDS011;1528;52.550;13.408;2022-08-03T04:31:57;6.83;;;6.20;;
3036;SDS011;1528;52.550;13.408;2022-08-03T04:34:46;6.13;;;5.63;;
3036;SDS011;1528;52.550;13.408;2022-08-03T04:37:37;6.77;;;6.13;;
3036;SDS011;1528;52.550;13.408;2022-08-03T04:40:29;5.70;;;5.30;;
3036;SDS011;1528;52.550;13.408;2022-08-03T04:43:19;5.63;;;5.33;;
3036;SDS011;1528;52.550;13.408;2022-08-03T04:46:08;6.40;;;5.90;;
3036;SDS011;1528;52.550;13.408;2022-08-03T04:48:57;5.70;;;5.20;;
3036;SDS011;1528;52.550;13.408;2022-08-03T04:51:46;5.87;;;5.27;;
3036;SDS011;1528;52.550;13.408;2022-08-03T04:54:40;6.10;;;5.67;;
3036;SDS011;1528;52.550;13.408;2022-08-03T04:57:29;5.60;;;5.10;;
3036;SDS011;1528;52.550;13.408;2022-08-03T05:00:17;5.60;;;5.20;;
3036;SDS011;1528;52.550;13.408;2022-08-03T05:03:06;6.20;;;5.80;;
3036;SDS011;1528;52.550;13.408;2022-08-03T05:05:54;5.40;;;5.00;;
3036;SDS011;1528;52.550;13.408;2022-08-03T05:08:46;5.90;;;5.40;;
3036;SDS011;1528;52.550;13.408;2022-08-03T05:11:36;6.17;;;5.63;;
3036;SDS011;1528;52.550;13.408;2022-08-03T05:14:24;6.37;;;5.77;;
3036;SDS011;1528;52.550;13.408;2022-08-03T05:17:12;5.67;;;5.20;;
3036;SDS011;1528;52.550;13.408;2022-08-03T05:20:02;6.20;;;5.63;;
3036;SDS011;1528;52.550;13.408;2022-08-03T05:22:52;6.27;;;5.70;;
3036;SDS011;1528;52.550;13.408;2022-08-03T05:25:40;6.13;;;4.97;;
3036;SDS011;1528;52.550;13.408;2022-08-03T05:28:31;5.00;;;4.60;;
3036;SDS011;1528;52.550;13.408;2022-08-03T05:31:19;6.93;;;4.83;;
3036;SDS011;1528;52.550;13.408;2022-08-03T05:34:10;7.23;;;6.07;;
3036;SDS011;1528;52.550;13.408;2022-08-03T05:36:59;6.80;;;5.87;;
3036;SDS011;1528;52.550;13.408;2022-08-03T05:39:47;5.10;;;4.70;;
3036;SDS011;1528;52.550;13.408;2022-08-03T05:42:36;5.60;;;5.10;;
3036;SDS011;1528;52.550;13.408;2022-08-03T05:45:26;6.20;;;5.60;;
3036;SDS011;1528;52.550;13.408;2022-08-03T05:48:13;6.70;;;6.10;;
3036;SDS011;1528;52.550;13.408;2022-08-03T05:51:02;6.30;;;5.80;;
3036;SDS011;1528;52.550;13.408;2022-08-03T05:53:54;7.27;;;5.63;;
3036;SDS011;1528;52.550;13.408;2022-08-03T05:56:43;4.83;;;4.47;;
3036;SDS011;1528;52.550;13.408;2022-08-03T05:59:32;6.30;;;5.70;;
3036;SDS011;1528;52.550;13.408;2022-08-03T06:02:21;6.87;;;6.17;;
3036;SDS011;1528;52.550;13.408;2022-08-03T06:05:10;6.63;;;6.07;;
3036;SDS011;1528;52.550;13.408;2022-08-03T06:07:59;6.10;;;5.60;;
3036;SDS011;1528;52.550;13.408;2022-08-03T06:10:47;4.87;;;4.47;;
3036;SDS011;1528;52.550;13.408;2022-08-03T06:13:35;7.20;;;5.63;;
3036;SDS011;1528;52.550;13.408;2022-08-03T06:16:24;6.53;;;5.90;;
3036;SDS011;1528;52.550;13.408;2022-08-03T06:19:15;6.37;;;5.77;;
3036;SDS011;1528;52.550;13.408;2022-08-03T06:22:03;10.93;;;6.00;;
3036;SDS011;1528;52.550;13.408;2022-08-03T06:24:52;5.17;;;4.60;;
3036;SDS011;1528;52.550;13.408;2022-08-03T06:27:42;5.40;;;4.90;;
3036;SDS011;1528;52.550;13.408;2022-08-03T06:30:31;5.80;;;5.00;;
3036;SDS011;1528;52.550;13.408;2022-08-03T06:33:19;5.60;;;5.00;;
3036;SDS011;1528;52.550;13.408;2022-08-03T06:36:10;5.70;;;5.30;;
3036;SDS011;1528;52.550;13.408;2022-08-03T06:38:58;8.07;;;5.00;;
3036;SDS011;1528;52.550;13.408;2022-08-03T06:41:47;7.40;;;5.17;;
3036;SDS011;1528;52.550;13.408;2022-08-03T06:44:35;5.30;;;4.90;;
3036;SDS011;1528;52.550;13.408;2022-08-03T06:47:24;4.67;;;4.27;;
3036;SDS011;1528;52.550;13.408;2022-08-03T06:50:12;6.57;;;4.93;;
3036;SDS011;1528;52.550;13.408;2022-08-03T06:53:02;5.60;;;5.10;;
3036;SDS011;1528;52.550;13.408;2022-08-03T06:55:51;5.20;;;4.20;;
3036;SDS011;1528;52.550;13.408;2022-08-03T06:58:42;5.43;;;4.93;;
3036;SDS011;1528;52.550;13.408;2022-08-03T07:01:30;5.90;;;4.17;;
3036;SDS011;1528;52.550;13.408;2022-08-03T07:04:19;5.17;;;4.70;;
3036;SDS011;1528;52.550;13.408;2022-08-03T07:07:07;5.50;;;4.47;;
3036;SDS011;1528;52.550;13.408;2022-08-03T07:09:56;6.37;;;4.37;;
3036;SDS011;1528;52.550;13.408;2022-08-03T07:12:44;3.97;;;3.67;;
3036;SDS011;1528;52.550;13.408;2022-08-03T07:15:33;5.23;;;4.10;;
3036;SDS011;1528;52.550;13.408;2022-08-03T07:18:21;4.67;;;4.37;;
3036;SDS011;1528;52.550;13.408;2022-08-03T07:21:10;6.93;;;4.23;;
3036;SDS011;1528;52.550;13.408;2022-08-03T07:24:00;4.27;;;3.90;;
3036;SDS011;1528;52.550;13.408;2022-08-03T07:26:50;4.73;;;4.33;;
3036;SDS011;1528;52.550;13.408;2022-08-03T07:29:39;8.87;;;4.53;;
3036;SDS011;1528;52.550;13.408;2022-08-03T07:32:27;4.87;;;4.47;;
3036;SDS011;1528;52.550;13.408;2022-08-03T07:35:16;5.83;;;5.30;;
3036;SDS011;1528;52.550;13.408;2022-08-03T07:38:05;6.23;;;3.97;;
3036;SDS011;1528;52.550;13.408;2022-08-03T07:40:53;4.80;;;3.93;;
3036;SDS011;1528;52.550;13.408;2022-08-03T07:43:43;3.73;;;3.43;;
3036;SDS011;1528;52.550;13.408;2022-08-03T07:46:32;4.27;;;3.73;;
3036;SDS011;1528;52.550;13.408;2022-08-03T07:49:20;4.60;;;4.20;;
3036;SDS011;1528;52.550;13.408;2022-08-03T07:52:08;3.70;;;3.40;;
3036;SDS011;1528;52.550;13.408;2022-08-03T07:55:12;5.10;;;4.23;;
3036;SDS011;1528;52.550;13.408;2022-08-03T07:58:01;4.80;;;4.17;;
3036;SDS011;1528;52.550;13.408;2022-08-03T08:00:52;4.47;;;3.87;;
3036;SDS011;1528;52.550;13.408;2022-08-03T08:03:41;3.80;;;3.50;;
3036;SDS011;1528;52.550;13.408;2022-08-03T08:06:30;4.77;;;3.50;;
3036;SDS011;1528;52.550;13.408;2022-08-03T08:09:18;4.00;;;3.60;;
3036;SDS011;1528;52.550;13.408;2022-08-03T08:12:06;4.03;;;3.60;;
3036;SDS011;1528;52.550;13.408;2022-08-03T08:14:56;4.50;;;3.30;;
3036;SDS011;1528;52.550;13.408;2022-08-03T08:17:46;4.17;;;3.83;;
3036;SDS011;1528;52.550;13.408;2022-08-03T08:20:35;4.20;;;3.80;;
3036;SDS011;1528;52.550;13.408;2022-08-03T08:23:24;4.40;;;3.57;;
3036;SDS011;1528;52.550;13.408;2022-08-03T08:26:12;5.10;;;4.33;;
3036;SDS011;1528;52.550;13.408;2022-08-03T08:29:01;4.20;;;3.70;;
3036;SDS011;1528;52.550;13.408;2022-08-03T08:31:50;4.23;;;3.90;;
3036;SDS011;1528;52.550;13.408;2022-08-03T08:34:41;6.77;;;3.87;;
3036;SDS011;1528;52.550;13.408;2022-08-03T08:37:29;5.77;;;4.10;;
3036;SDS011;1528;52.550;13.408;2022-08-03T08:40:18;4.50;;;3.90;;
3036;SDS011;1528;52.550;13.408;2022-08-03T08:43:08;3.80;;;3.60;;
3036;SDS011;1528;52.550;13.408;2022-08-03T08:45:57;3.63;;;3.33;;
3036;SDS011;1528;52.550;13.408;2022-08-03T08:48:47;4.13;;;3.83;;
3036;SDS011;1528;52.550;13.408;2022-08-03T08:51:38;4.10;;;3.80;;
3036;SDS011;1528;52.550;13.408;2022-08-03T08:54:29;4.13;;;3.73;;
3036;SDS011;1528;52.550;13.408;2022-08-03T08:57:20;5.80;;;5.30;;
3036;SDS011;1528;52.550;13.408;2022-08-03T09:00:10;22.63;;;20.60;;
3036;SDS011;1528;52.550;13.408;2022-08-03T09:02:58;6.90;;;4.23;;
3036;SDS011;1528;52.550;13.408;2022-08-03T09:05:47;4.93;;;4.63;;
3036;SDS011;1528;52.550;13.408;2022-08-03T09:08:37;5.83;;;4.73;;
3036;SDS011;1528;52.550;13.408;2022-08-03T09:11:25;6.30;;;5.60;;
3036;SDS011;1528;52.550;13.408;2022-08-03T09:14:14;5.13;;;4.50;;
3036;SDS011;1528;52.550;13.408;2022-08-03T09:17:02;5.40;;;4.90;;
3036;SDS011;1528;52.550;13.408;2022-08-03T09:20:03;7.40;;;5.67;;
3036;SDS011;1528;52.550;13.408;2022-08-03T09:22:55;11.00;;;4.23;;
3036;SDS011;1528;52.550;13.408;2022-08-03T09:25:46;5.67;;;4.20;;
3036;SDS011;1528;52.550;13.408;2022-08-03T09:28:43;4.87;;;4.47;;
3036;SDS011;1528;52.550;13.408;2022-08-03T09:31:32;5.10;;;4.70;;
3036;SDS011;1528;52.550;13.408;2022-08-03T09:34:22;4.77;;;4.37;;
3036;SDS011;1528;52.550;13.408;2022-08-03T09:37:13;3.93;;;3.63;;
3036;SDS011;1528;52.550;13.408;2022-08-03T09:40:03;4.10;;;3.70;;
3036;SDS011;1528;52.550;13.408;2022-08-03T09:42:56;4.20;;;3.90;;
3036;SDS011;1528;52.550;13.408;2022-08-03T09:45:45;4.00;;;3.63;;
3036;SDS011;1528;52.550;13.408;2022-08-03T09:48:32;4.20;;;3.90;;
3036;SDS011;1528;52.550;13.408;2022-08-03T09:51:23;4.23;;;3.93;;
3036;SDS011;1528;52.550;13.408;2022-08-03T09:54:12;3.63;;;3.37;;
3036;SDS011;1528;52.550;13.408;2022-08-03T09:57:19;3.63;;;3.33;;
3036;SDS011;1528;52.550;13.408;2022-08-03T10:00:10;3.47;;;3.27;;
3036;SDS011;1528;52.550;13.408;2022-08-03T10:03:02;4.30;;;4.00;;
3036;SDS011;1528;52.550;13.408;2022-08-03T10:05:50;4.43;;;4.03;;
3036;SDS011;1528;52.550;13.408;2022-08-03T10:08:39;4.63;;;4.23;;
3036;SDS011;1528;52.550;13.408;2022-08-03T10:11:28;4.60;;;4.20;;
3036;SDS011;1528;52.550;13.408;2022-08-03T10:14:18;4.47;;;4.03;;
3036;SDS011;1528;52.550;13.408;2022-08-03T10:17:10;4.40;;;3.97;;
3036;SDS011;1528;52.550;13.408;2022-08-03T10:19:59;4.00;;;3.70;;
3036;SDS011;1528;52.550;13.408;2022-08-03T10:22:48;3.90;;;3.60;;
3036;SDS011;1528;52.550;13.408;2022-08-03T10:25:38;4.00;;;3.60;;
3036;SDS011;1528;52.550;13.408;2022-08-03T10:28:27;3.97;;;3.50;;
3036;SDS011;1528;52.550;13.408;2022-08-03T10:31:20;5.70;;;4.30;;
3036;SDS011;1528;52.550;13.408;2022-08-03T10:34:14;4.83;;;4.23;;
3036;SDS011;1528;52.550;13.408;2022-08-03T10:37:06;5.13;;;4.77;;
3036;SDS011;1528;52.550;13.408;2022-08-03T10:39:57;4.37;;;4.07;;
3036;SDS011;1528;52.550;13.408;2022-08-03T10:42:49;3.90;;;3.60;;
3036;SDS011;1528;52.550;13.408;2022-08-03T10:45:42;3.90;;;3.60;;
3036;SDS011;1528;52.550;13.408;2022-08-03T10:48:31;3.90;;;3.60;;
3036;SDS011;1528;52.550;13.408;2022-08-03T10:51:21;4.23;;;3.93;;
3036;SDS011;1528;52.550;13.408;2022-08-03T10:57:43;4.07;;;3.77;;
3036;SDS011;1528;52.550;13.408;2022-08-03T11:00:33;3.97;;;3.67;;
3036;SDS011;1528;52.550;13.408;2022-08-03T11:04:12;3.87;;;3.47;;
3036;SDS011;1528;52.550;13.408;2022-08-03T11:07:19;4.67;;;3.30;;
3036;SDS011;1528;52.550;13.408;2022-08-03T11:10:08;4.10;;;3.40;;
3036;SDS011;1528;52.550;13.408;2022-08-03T11:13:16;4.40;;;3.90;;
3036;SDS011;1528;52.550;13.408;2022-08-03T11:16:17;3.60;;;3.27;;
3036;SDS011;1528;52.550;13.408;2022-08-03T11:19:07;3.77;;;3.47;;
3036;SDS011;1528;52.550;13.408;2022-08-03T11:21:56;3.87;;;3.50;;
3036;SDS011;1528;52.550;13.408;2022-08-03T11:25:01;4.20;;;3.90;;
3036;SDS011;1528;52.550;13.408;2022-08-03T11:27:49;4.20;;;3.80;;
3036;SDS011;1528;52.550;13.408;2022-08-03T11:34:35;3.70;;;3.50;;
3036;SDS011;1528;52.550;13.408;2022-08-03T11:38:05;3.67;;;3.37;;
3036;SDS011;1528;52.550;13.408;2022-08-03T11:40:58;4.20;;;3.80;;
3036;SDS011;1528;52.550;13.408;2022-08-03T11:43:46;4.57;;;3.40;;
3036;SDS011;1528;52.550;13.408;2022-08-03T11:46:36;3.83;;;3.50;;
3036;SDS011;1528;52.550;13.408;2022-08-03T11:49:24;4.07;;;3.83;;
3036;SDS011;1528;52.550;13.408;2022-08-03T11:52:13;4.43;;;4.07;;
3036;SDS011;1528;52.550;13.408;2022-08-03T11:55:06;3.97;;;3.50;;
3036;SDS011;1528;52.550;13.408;2022-08-03T11:58:07;4.60;;;4.30;;
3036;SDS011;1528;52.550;13.408;2022-08-03T12:01:04;4.40;;;4.10;;
3036;SDS011;1528;52.550;13.408;2022-08-03T12:03:54;4.00;;;3.63;;
3036;SDS011;1528;52.550;13.408;2022-08-03T12:06:59;5.00;;;4.60;;
3036;SDS011;1528;52.550;13.408;2022-08-03T12:12:54;3.83;;;3.63;;
3036;SDS011;1528;52.550;13.408;2022-08-03T12:15:49;4.03;;;3.73;;
3036;SDS011;1528;52.550;13.408;2022-08-03T12:18:38;2.90;;;2.70;;
3036;SDS011;1528;52.550;13.408;2022-08-03T12:21:27;3.60;;;3.40;;
3036;SDS011;1528;52.550;13.408;2022-08-03T12:24:15;4.37;;;4.17;;
3036;SDS011;1528;52.550;13.408;2022-08-03T12:27:04;4.17;;;3.77;;
3036;SDS011;1528;52.550;13.408;2022-08-03T12:29:52;4.43;;;4.03;;
3036;SDS011;1528;52.550;13.408;2022-08-03T12:32:44;3.97;;;3.77;;
3036;SDS011;1528;52.550;13.408;2022-08-03T12:35:32;5.13;;;4.93;;
3036;SDS011;1528;52.550;13.408;2022-08-03T12:38:20;6.13;;;5.90;;
3036;SDS011;1528;52.550;13.408;2022-08-03T12:41:09;5.10;;;4.90;;
3036;SDS011;1528;52.550;13.408;2022-08-03T12:44:00;3.97;;;3.77;;
3036;SDS011;1528;52.550;13.408;2022-08-03T12:46:56;4.00;;;3.80;;
3036;SDS011;1528;52.550;13.408;2022-08-03T12:49:47;3.57;;;3.37;;
3036;SDS011;1528;52.550;13.408;2022-08-03T12:52:41;4.10;;;3.90;;
3036;SDS011;1528;52.550;13.408;2022-08-03T12:55:30;5.13;;;4.80;;
3036;SDS011;1528;52.550;13.408;2022-08-03T12:58:27;4.23;;;4.03;;
3036;SDS011;1528;52.550;13.408;2022-08-03T13:01:18;4.13;;;3.93;;
3036;SDS011;1528;52.550;13.408;2022-08-03T13:04:07;4.17;;;3.93;;
3036;SDS011;1528;52.550;13.408;2022-08-03T13:06:58;3.67;;;3.47;;
3036;SDS011;1528;52.550;13.408;2022-08-03T13:09:48;5.03;;;4.73;;
3036;SDS011;1528;52.550;13.408;2022-08-03T13:12:46;5.27;;;4.97;;
3036;SDS011;1528;52.550;13.408;2022-08-03T13:15:34;3.80;;;3.60;;
3036;SDS011;1528;52.550;13.408;2022-08-03T13:18:25;6.68;;;4.70;;
3036;SDS011;1528;52.550;13.408;2022-08-03T13:21:13;5.82;;;5.43;;
3036;SDS011;1528;52.550;13.408;2022-08-03T13:24:03;6.45;;;6.25;;
3036;SDS011;1528;52.550;13.408;2022-08-03T13:26:52;6.38;;;6.13;;
3036;SDS011;1528;52.550;13.408;2022-08-03T13:29:40;5.45;;;5.15;;
3036;SDS011;1528;52.550;13.408;2022-08-03T13:32:28;3.75;;;3.55;;
3036;SDS011;1528;52.550;13.408;2022-08-03T13:35:16;4.13;;;3.83;;
3036;SDS011;1528;52.550;13.408;2022-08-03T13:38:05;7.07;;;6.68;;
3036;SDS011;1528;52.550;13.408;2022-08-03T13:40:55;6.55;;;6.25;;
3036;SDS011;1528;52.550;13.408;2022-08-03T13:43:44;7.75;;;7.45;;
3036;SDS011;1528;52.550;13.408;2022-08-03T13:46:32;9.15;;;8.65;;
3036;SDS011;1528;52.550;13.408;2022-08-03T13:49:20;9.30;;;8.85;;
3036;SDS011;1528;52.550;13.408;2022-08-03T13:52:08;7.80;;;7.60;;
3036;SDS011;1528;52.550;13.408;2022-08-03T13:54:56;10.65;;;10.30;;
3036;SDS011;1528;52.550;13.408;2022-08-03T13:57:45;12.73;;;12.23;;
3036;SDS011;1528;52.550;13.408;2022-08-03T14:00:34;7.88;;;7.47;;
3036;SDS011;1528;52.550;13.408;2022-08-03T14:03:23;7.43;;;7.00;;
3036;SDS011;1528;52.550;13.408;2022-08-03T14:06:12;8.35;;;7.95;;
3036;SDS011;1528;52.550;13.408;2022-08-03T14:09:00;10.77;;;10.38;;
3036;SDS011;1528;52.550;13.408;2022-08-03T14:11:48;10.27;;;9.88;;
3036;SDS011;1528;52.550;13.408;2022-08-03T14:14:39;7.28;;;6.97;;
3036;SDS011;1528;52.550;13.408;2022-08-03T14:17:28;6.35;;;6.15;;
3036;SDS011;1528;52.550;13.408;2022-08-03T14:20:17;7.78;;;7.40;;
3036;SDS011;1528;52.550;13.408;2022-08-03T14:23:06;7.68;;;7.25;;
3036;SDS011;1528;52.550;13.408;2022-08-03T14:25:56;9.25;;;8.55;;
3036;SDS011;1528;52.550;13.408;2022-08-03T14:28:44;9.43;;;8.60;;
3036;SDS011;1528;52.550;13.408;2022-08-03T14:31:35;8.57;;;8.18;;
3036;SDS011;1528;52.550;13.408;2022-08-03T14:34:23;8.90;;;8.60;;
3036;SDS011;1528;52.550;13.408;2022-08-03T14:37:15;9.95;;;9.55;;
3036;SDS011;1528;52.550;13.408;2022-08-03T14:40:04;10.75;;;10.38;;
3036;SDS011;1528;52.550;13.408;2022-08-03T14:42:54;9.65;;;9.15;;
3036;SDS011;1528;52.550;13.408;2022-08-03T14:45:42;11.35;;;10.93;;
3036;SDS011;1528;52.550;13.408;2022-08-03T14:48:33;10.82;;;10.43;;
3036;SDS011;1528;52.550;13.408;2022-08-03T14:51:23;9.15;;;8.85;;
3036;SDS011;1528;52.550;13.408;2022-08-03T14:54:13;9.13;;;8.73;;
3036;SDS011;1528;52.550;13.408;2022-08-03T14:57:01;6.65;;;6.20;;
3036;SDS011;1528;52.550;13.408;2022-08-03T14:59:50;6.47;;;6.28;;
3036;SDS011;1528;52.550;13.408;2022-08-03T15:02:39;5.80;;;5.60;;
3036;SDS011;1528;52.550;13.408;2022-08-03T15:05:28;5.50;;;5.20;;
3036;SDS011;1528;52.550;13.408;2022-08-03T15:08:17;5.18;;;4.97;;
3036;SDS011;1528;52.550;13.408;2022-08-03T15:11:06;5.22;;;5.03;;
3036;SDS011;1528;52.550;13.408;2022-08-03T15:13:55;5.57;;;5.38;;
3036;SDS011;1528;52.550;13.408;2022-08-03T15:16:43;5.20;;;5.00;;
3036;SDS011;1528;52.550;13.408;2022-08-03T15:19:32;5.00;;;4.70;;
3036;SDS011;1528;52.550;13.408;2022-08-03T15:22:23;3.97;;;3.77;;
3036;SDS011;1528;52.550;13.408;2022-08-03T15:25:12;3.37;;;3.23;;
3036;SDS011;1528;52.550;13.408;2022-08-03T15:28:00;3.93;;;3.67;;
3036;SDS011;1528;52.550;13.408;2022-08-03T15:30:50;4.40;;;4.10;;
3036;SDS011;1528;52.550;13.408;2022-08-03T15:33:38;5.63;;;5.23;;
3036;SDS011;1528;52.550;13.408;2022-08-03T15:36:27;3.60;;;3.30;;
3036;SDS011;1528;52.550;13.408;2022-08-03T15:39:17;3.57;;;3.27;;
3036;SDS011;1528;52.550;13.408;2022-08-03T15:42:06;4.70;;;4.27;;
3036;SDS011;1528;52.550;13.408;2022-08-03T15:44:54;3.47;;;3.07;;
3036;SDS011;1528;52.550;13.408;2022-08-03T15:47:43;3.27;;;3.07;;
3036;SDS011;1528;52.550;13.408;2022-08-03T15:50:31;3.63;;;3.40;;
3036;SDS011;1528;52.550;13.408;2022-08-03T15:53:20;4.83;;;3.50;;
3036;SDS011;1528;52.550;13.408;2022-08-03T15:56:11;3.43;;;3.23;;
3036;SDS011;1528;52.550;13.408;2022-08-03T15:58:59;3.37;;;3.17;;
3036;SDS011;1528;52.550;13.408;2022-08-03T16:01:48;3.30;;;3.00;;
3036;SDS011;1528;52.550;13.408;2022-08-03T16:04:40;3.50;;;3.30;;
3036;SDS011;1528;52.550;13.408;2022-08-03T16:07:28;4.43;;;4.03;;
3036;SDS011;1528;52.550;13.408;2022-08-03T16:10:30;3.10;;;2.90;;
3036;SDS011;1528;52.550;13.408;2022-08-03T16:13:20;3.80;;;3.40;;
3036;SDS011;1528;52.550;13.408;2022-08-03T16:16:09;3.70;;;3.40;;
3036;SDS011;1528;52.550;13.408;2022-08-03T16:18:57;3.60;;;3.30;;
3036;SDS011;1528;52.550;13.408;2022-08-03T16:21:45;4.13;;;3.93;;
3036;SDS011;1528;52.550;13.408;2022-08-03T16:24:34;3.90;;;3.60;;
3036;SDS011;1528;52.550;13.408;2022-08-03T16:27:23;4.10;;;3.90;;
3036;SDS011;1528;52.550;13.408;2022-08-03T16:30:14;4.43;;;4.13;;
3036;SDS011;1528;52.550;13.408;2022-08-03T16:33:03;3.93;;;3.63;;
3036;SDS011;1528;52.550;13.408;2022-08-03T16:35:51;4.07;;;3.87;;
3036;SDS011;1528;52.550;13.408;2022-08-03T16:38:40;5.97;;;5.40;;
3036;SDS011;1528;52.550;13.408;2022-08-03T16:41:29;6.30;;;5.70;;
3036;SDS011;1528;52.550;13.408;2022-08-03T16:44:18;4.93;;;4.63;;
3036;SDS011;1528;52.550;13.408;2022-08-03T16:47:08;5.43;;;5.03;;
3036;SDS011;1528;52.550;13.408;2022-08-03T16:49:57;5.83;;;5.33;;
3036;SDS011;1528;52.550;13.408;2022-08-03T16:52:46;4.07;;;3.77;;
3036;SDS011;1528;52.550;13.408;2022-08-03T16:55:35;4.07;;;3.47;;
3036;SDS011;1528;52.550;13.408;2022-08-03T16:58:25;4.20;;;4.00;;
3036;SDS011;1528;52.550;13.408;2022-08-03T17:01:14;4.10;;;3.90;;
3036;SDS011;1528;52.550;13.408;2022-08-03T17:04:05;5.20;;;4.73;;
3036;SDS011;1528;52.550;13.408;2022-08-03T17:06:54;5.83;;;4.30;;
3036;SDS011;1528;52.550;13.408;2022-08-03T17:09:44;4.50;;;4.17;;
3036;SDS011;1528;52.550;13.408;2022-08-03T17:12:33;4.63;;;3.87;;
3036;SDS011;1528;52.550;13.408;2022-08-03T17:15:21;4.10;;;3.80;;
3036;SDS011;1528;52.550;13.408;2022-08-03T17:18:10;4.20;;;3.90;;
3036;SDS011;1528;52.550;13.408;2022-08-03T17:21:05;5.83;;;5.53;;
3036;SDS011;1528;52.550;13.408;2022-08-03T17:23:56;4.87;;;4.47;;
3036;SDS011;1528;52.550;13.408;2022-08-03T17:26:49;6.30;;;5.90;;
3036;SDS011;1528;52.550;13.408;2022-08-03T17:29:39;6.23;;;5.83;;
3036;SDS011;1528;52.550;13.408;2022-08-03T17:32:31;7.40;;;7.00;;
3036;SDS011;1528;52.550;13.408;2022-08-03T17:35:20;5.10;;;4.80;;